Time;durP1;ratioP1;P1;durP2;ratioP2;P2;SDS_P1;SDS_P2;PMS_P1;PMS_P2;Temp;Humidity;BMP_temperature;BMP_pressure;BME280_temperature;BME280_humidity;BME280_pressure;Samples;Min_cycle;Max_cycle;Signal;HPM_P1;HPM_P2
2022/06/10 00:00:33;;;;;;;18.13;8.20;;;12.80;99.90;;;;;;5072627;28;20209;-60
2022/06/10 00:03:00;;;;;;;14.37;8.43;;;12.80;99.90;;;;;;5072624;28;20261;-59
2022/06/10 00:05:30;;;;;;;12.57;7.23;;;12.80;99.90;;;;;;5072361;28;20278;-59
2022/06/10 00:07:57;;;;;;;14.57;6.97;;;12.80;99.90;;;;;;5072434;28;20598;-60
2022/06/10 00:10:28;;;;;;;12.13;6.80;;;12.70;99.90;;;;;;5072337;28;20239;-60
2022/06/10 00:12:55;;;;;;;8.03;7.20;;;12.70;99.90;;;;;;5072101;28;20683;-60
2022/06/10 00:15:22;;;;;;;11.13;7.27;;;12.70;99.90;;;;;;5072055;28;20298;-60
2022/06/10 00:17:49;;;;;;;11.23;6.77;;;12.70;99.90;;;;;;5072072;28;20263;-60
2022/06/10 00:20:18;;;;;;;9.00;6.37;;;12.70;99.90;;;;;;5072236;28;20207;-60
2022/06/10 00:22:45;;;;;;;13.87;7.00;;;12.60;99.90;;;;;;5072018;28;20674;-60
2022/06/10 00:25:13;;;;;;;13.03;6.70;;;12.60;99.90;;;;;;5071953;28;20789;-59
2022/06/10 00:27:41;;;;;;;9.57;6.73;;;12.50;99.90;;;;;;5071787;28;20238;-59
2022/06/10 00:30:10;;;;;;;10.57;7.03;;;12.50;99.90;;;;;;5072057;28;20703;-59
2022/06/10 00:32:37;;;;;;;8.83;7.07;;;12.40;99.90;;;;;;5072030;28;20207;-61
2022/06/10 00:35:04;;;;;;;11.40;7.23;;;12.40;99.90;;;;;;5071942;28;20235;-60
2022/06/10 00:37:31;;;;;;;9.73;7.60;;;12.40;99.90;;;;;;5071397;28;20294;-59
2022/06/10 00:39:58;;;;;;;11.33;7.73;;;12.30;99.90;;;;;;5071830;28;20251;-60
2022/06/10 00:42:25;;;;;;;11.27;8.30;;;12.30;99.90;;;;;;5071892;28;20545;-59
2022/06/10 00:44:54;;;;;;;11.47;8.57;;;12.30;99.90;;;;;;5071683;28;20231;-59
2022/06/10 00:47:35;;;;;;;11.10;7.10;;;12.40;99.90;;;;;;5071364;28;20756;-59
2022/06/10 00:50:14;;;;;;;12.63;7.60;;;12.30;99.90;;;;;;5071520;28;20274;-60
2022/06/10 00:52:44;;;;;;;12.97;7.93;;;12.30;99.90;;;;;;5072219;28;20377;-60
2022/06/10 00:55:11;;;;;;;12.90;8.00;;;12.30;99.90;;;;;;5072300;28;20236;-59
2022/06/10 00:57:41;;;;;;;10.80;7.20;;;12.30;99.90;;;;;;5071700;28;20207;-58
2022/06/10 01:00:14;;;;;;;10.37;6.30;;;12.40;99.90;;;;;;5071786;28;20332;-59
2022/06/10 01:02:41;;;;;;;12.00;6.93;;;12.30;99.90;;;;;;5071482;28;20213;-60
2022/06/10 01:05:11;;;;;;;11.73;6.27;;;12.30;99.90;;;;;;5071719;28;20297;-59
2022/06/10 01:07:41;;;;;;;8.13;6.13;;;12.30;99.90;;;;;;5071298;28;20262;-59
2022/06/10 01:10:12;;;;;;;10.57;6.73;;;12.30;99.90;;;;;;5071631;28;20222;-59
2022/06/10 01:12:53;;;;;;;8.00;6.53;;;12.30;99.90;;;;;;5071530;28;20207;-59
2022/06/10 01:15:33;;;;;;;11.73;6.80;;;12.30;99.90;;;;;;5071340;28;20313;-59
2022/06/10 01:18:22;;;;;;;9.83;6.33;;;12.30;99.90;;;;;;5071077;28;20428;-59
2022/06/10 01:21:04;;;;;;;10.33;6.40;;;12.30;99.90;;;;;;5071705;28;20277;-60
2022/06/10 01:24:12;;;;;;;9.03;5.83;;;12.30;99.90;;;;;;5071365;28;20209;-59
2022/06/10 01:30:21;;;;;;;8.87;6.60;;;12.30;99.90;;;;;;5071498;28;20223;-60
2022/06/10 01:33:13;;;;;;;7.77;6.63;;;12.20;99.90;;;;;;5071691;28;20211;-60
2022/06/10 01:35:44;;;;;;;12.17;6.87;;;12.20;99.90;;;;;;5071361;28;20270;-61
2022/06/10 01:38:17;;;;;;;9.93;6.73;;;12.20;99.90;;;;;;5070982;28;20273;-60
2022/06/10 01:40:53;;;;;;;11.73;7.30;;;12.20;99.90;;;;;;5071238;28;20204;-60
2022/06/10 01:43:33;;;;;;;9.97;7.10;;;12.20;99.90;;;;;;5071629;28;20728;-61
2022/06/10 01:46:08;;;;;;;9.67;7.10;;;12.20;99.90;;;;;;5070858;28;20763;-60
2022/06/10 01:48:44;;;;;;;9.50;6.90;;;12.20;99.90;;;;;;5071261;28;20339;-60
2022/06/10 01:51:19;;;;;;;10.70;7.07;;;12.20;99.90;;;;;;5071218;28;20333;-60
2022/06/10 01:53:50;;;;;;;12.97;7.37;;;12.20;99.90;;;;;;5071404;28;20204;-57
2022/06/10 01:56:22;;;;;;;13.97;6.90;;;12.20;99.90;;;;;;5070759;28;20674;-58
2022/06/10 01:58:53;;;;;;;9.93;6.87;;;12.20;99.90;;;;;;5071563;28;20219;-60
2022/06/10 02:01:23;;;;;;;12.27;6.70;;;12.20;99.90;;;;;;5072010;28;20260;-60
2022/06/10 02:03:56;;;;;;;10.20;7.40;;;12.20;99.90;;;;;;5074204;28;20208;-59
2022/06/10 02:06:27;;;;;;;10.40;6.90;;;12.20;99.90;;;;;;5074762;28;20209;-60
2022/06/10 02:08:58;;;;;;;12.23;7.43;;;12.20;99.90;;;;;;5074595;28;20227;-58
2022/06/10 02:11:26;;;;;;;12.90;6.70;;;12.20;99.90;;;;;;5074595;28;20682;-58
2022/06/10 02:13:56;;;;;;;11.97;6.70;;;12.20;99.90;;;;;;5074273;28;20206;-60
2022/06/10 02:16:26;;;;;;;9.90;6.30;;;12.10;99.90;;;;;;5074309;28;20209;-60
2022/06/10 02:19:01;;;;;;;12.53;7.20;;;12.10;99.90;;;;;;5074736;28;20268;-60
2022/06/10 02:21:34;;;;;;;8.17;6.80;;;12.10;99.90;;;;;;5074535;28;20678;-60
2022/06/10 02:24:06;;;;;;;11.97;7.10;;;12.10;99.90;;;;;;5074152;28;20233;-58
2022/06/10 02:26:35;;;;;;;9.13;6.97;;;12.00;99.90;;;;;;5074237;28;20205;-61
2022/06/10 02:29:06;;;;;;;9.97;7.83;;;12.00;99.90;;;;;;5074159;28;20226;-61
2022/06/10 02:31:37;;;;;;;13.23;7.53;;;12.00;99.90;;;;;;5074420;28;20638;-61
2022/06/10 02:34:06;;;;;;;11.77;7.37;;;12.00;99.90;;;;;;5074289;28;20274;-61
2022/06/10 02:36:45;;;;;;;10.63;7.73;;;12.00;99.90;;;;;;5073474;28;20717;-60
2022/06/10 02:39:19;;;;;;;13.87;7.90;;;12.00;99.90;;;;;;5074178;28;20209;-60
2022/06/10 02:41:51;;;;;;;14.00;7.83;;;12.00;99.90;;;;;;5074137;28;20208;-60
2022/06/10 02:44:24;;;;;;;15.00;8.00;;;11.90;99.90;;;;;;5074148;28;20275;-61
2022/06/10 02:47:01;;;;;;;10.93;7.60;;;11.80;99.90;;;;;;5073583;28;20231;-61
2022/06/10 02:49:29;;;;;;;9.63;7.90;;;11.80;99.90;;;;;;5073863;28;20225;-60
2022/06/10 02:51:56;;;;;;;17.47;9.10;;;11.80;99.90;;;;;;5073712;28;20824;-61
2022/06/10 02:54:28;;;;;;;14.37;9.00;;;11.80;99.90;;;;;;5073754;28;20255;-60
2022/06/10 02:56:55;;;;;;;12.93;8.30;;;11.70;99.90;;;;;;5073085;28;20676;-63
2022/06/10 03:02:20;;;;;;;12.00;8.43;;;11.80;99.90;;;;;;5073590;28;20275;-60
2022/06/10 03:05:00;;;;;;;13.63;8.17;;;11.80;99.90;;;;;;5073834;28;20227;-59
2022/06/10 03:07:43;;;;;;;15.23;9.30;;;11.80;99.90;;;;;;5073620;28;20209;-60
2022/06/10 03:10:22;;;;;;;12.00;8.93;;;11.70;99.90;;;;;;5073786;28;20216;-59
2022/06/10 03:13:08;;;;;;;11.90;8.77;;;11.80;99.90;;;;;;5073716;28;20251;-60
2022/06/10 03:15:46;;;;;;;12.00;8.43;;;11.70;99.90;;;;;;5072061;28;20230;-58
2022/06/10 03:18:19;;;;;;;13.73;8.77;;;11.70;99.90;;;;;;5073095;28;20205;-59
2022/06/10 03:20:58;;;;;;;11.87;8.77;;;11.60;99.90;;;;;;5073471;28;20200;-59
2022/06/10 03:23:34;;;;;;;14.53;9.30;;;11.60;99.90;;;;;;5073470;28;20298;-60
2022/06/10 03:26:06;;;;;;;12.90;8.87;;;11.60;99.90;;;;;;5072703;28;20225;-60
2022/06/10 03:28:40;;;;;;;13.47;8.73;;;11.60;99.90;;;;;;5073207;28;20210;-60
2022/06/10 03:31:13;;;;;;;17.43;9.63;;;11.60;99.90;;;;;;5073062;28;20670;-59
2022/06/10 03:33:45;;;;;;;14.67;9.27;;;11.60;99.90;;;;;;5073155;28;20315;-60
2022/06/10 03:36:16;;;;;;;14.60;9.13;;;11.60;99.90;;;;;;5072724;28;20217;-59
2022/06/10 03:38:46;;;;;;;12.97;9.20;;;11.60;99.90;;;;;;5073019;28;20200;-60
2022/06/10 03:41:21;;;;;;;10.53;8.57;;;11.60;99.90;;;;;;5072650;28;20254;-60
2022/06/10 03:43:49;;;;;;;12.67;8.70;;;11.60;99.90;;;;;;5073037;28;20208;-60
2022/06/10 03:46:18;;;;;;;10.17;8.37;;;11.60;99.90;;;;;;5072699;28;20205;-58
2022/06/10 03:48:46;;;;;;;14.07;9.43;;;11.70;99.90;;;;;;5072714;28;20231;-58
2022/06/10 03:51:17;;;;;;;13.63;8.97;;;11.70;99.90;;;;;;5072625;28;20220;-60
2022/06/10 03:53:44;;;;;;;13.43;8.80;;;11.70;99.90;;;;;;5072458;28;20350;-60
2022/06/10 03:56:12;;;;;;;11.60;8.40;;;11.70;99.90;;;;;;5072146;28;20208;-58
2022/06/10 03:58:39;;;;;;;11.00;8.30;;;11.70;99.90;;;;;;5072828;28;20246;-60
2022/06/10 04:01:06;;;;;;;15.17;9.20;;;11.70;99.90;;;;;;5072923;28;20198;-60
2022/06/10 04:03:33;;;;;;;14.33;8.50;;;11.80;99.90;;;;;;5072564;28;20618;-60
2022/06/10 04:06:00;;;;;;;17.13;8.20;;;11.80;99.90;;;;;;5072151;28;20227;-59
2022/06/10 04:08:28;;;;;;;10.63;7.90;;;11.80;99.90;;;;;;5072542;28;20250;-58
2022/06/10 04:10:55;;;;;;;14.77;8.57;;;11.80;99.90;;;;;;5072676;28;20224;-60
2022/06/10 04:13:21;;;;;;;13.93;8.27;;;11.80;99.90;;;;;;5072509;28;20255;-60
2022/06/10 04:15:49;;;;;;;13.70;8.40;;;11.90;99.90;;;;;;5072060;28;20655;-60
2022/06/10 04:18:16;;;;;;;12.60;7.57;;;11.90;99.90;;;;;;5072055;28;20250;-60
2022/06/10 04:20:43;;;;;;;11.23;7.43;;;12.00;99.90;;;;;;5071959;28;20260;-60
2022/06/10 04:23:10;;;;;;;12.57;7.87;;;12.00;99.90;;;;;;5072197;28;20673;-60
2022/06/10 04:25:39;;;;;;;11.60;7.83;;;12.00;99.90;;;;;;5072029;28;20316;-60
2022/06/10 04:28:07;;;;;;;10.17;7.53;;;12.00;99.90;;;;;;5071724;28;20213;-60
2022/06/10 04:30:36;;;;;;;13.43;8.33;;;12.00;99.90;;;;;;5072127;28;20223;-60
2022/06/10 04:33:04;;;;;;;13.03;7.77;;;12.10;99.90;;;;;;5071929;28;20214;-60
2022/06/10 04:35:32;;;;;;;12.53;7.60;;;12.10;99.90;;;;;;5071860;28;20229;-62
2022/06/10 04:37:59;;;;;;;14.93;8.20;;;12.10;99.90;;;;;;5068870;28;20212;-64
2022/06/10 04:40:28;;;;;;;12.73;8.00;;;12.10;99.90;;;;;;5072012;28;20256;-64
2022/06/10 04:42:57;;;;;;;14.83;7.43;;;12.20;99.90;;;;;;5071699;28;20212;-64
2022/06/10 04:45:26;;;;;;;12.63;6.73;;;12.20;99.90;;;;;;5071687;28;20659;-64
2022/06/10 04:47:54;;;;;;;12.03;7.13;;;12.20;99.90;;;;;;5071335;28;20222;-63
2022/06/10 04:50:24;;;;;;;13.60;6.90;;;12.30;99.90;;;;;;5071375;28;20235;-63
2022/06/10 04:52:52;;;;;;;11.27;7.00;;;12.40;99.90;;;;;;5072008;28;20207;-64
2022/06/10 04:55:20;;;;;;;13.83;6.83;;;12.40;99.90;;;;;;5071402;28;20578;-64
2022/06/10 04:57:46;;;;;;;8.37;6.33;;;12.50;99.90;;;;;;5071337;28;20208;-64
2022/06/10 05:00:19;;;;;;;8.83;6.73;;;12.50;99.90;;;;;;5071449;28;20667;-63
2022/06/10 05:02:46;;;;;;;9.43;6.33;;;12.50;99.90;;;;;;5071514;28;20696;-64
2022/06/10 05:05:12;;;;;;;11.23;6.13;;;12.60;99.90;;;;;;5071630;28;20723;-64
2022/06/10 05:07:39;;;;;;;17.90;6.30;;;12.70;99.90;;;;;;5070923;28;20224;-62
2022/06/10 05:10:07;;;;;;;9.07;5.77;;;12.70;99.90;;;;;;5071480;28;20221;-64
2022/06/10 05:12:34;;;;;;;13.40;6.00;;;12.80;99.90;;;;;;5071094;28;20209;-64
2022/06/10 05:15:01;;;;;;;14.53;5.77;;;12.80;99.90;;;;;;5071351;28;20241;-68
2022/06/10 05:17:29;;;;;;;9.57;5.53;;;12.90;99.90;;;;;;5071458;28;20201;-62
2022/06/10 05:19:55;;;;;;;7.93;5.17;;;13.00;99.90;;;;;;5071193;28;20201;-66
2022/06/10 05:22:22;;;;;;;6.47;4.67;;;13.10;99.90;;;;;;5071514;28;20236;-66
2022/06/10 05:24:49;;;;;;;8.43;5.20;;;13.20;99.90;;;;;;5071086;28;20284;-67
2022/06/10 05:27:16;;;;;;;8.87;4.80;;;13.20;99.90;;;;;;5070483;28;20300;-66
2022/06/10 05:29:43;;;;;;;9.23;4.83;;;13.30;99.90;;;;;;5070966;28;20220;-66
2022/06/10 05:32:10;;;;;;;12.50;5.37;;;13.40;99.90;;;;;;5071453;28;20209;-64
2022/06/10 05:34:47;;;;;;;12.90;5.40;;;13.40;99.90;;;;;;5070819;28;20225;-62
2022/06/10 05:37:16;;;;;;;9.30;5.20;;;13.60;99.90;;;;;;5071105;28;20208;-64
2022/06/10 05:39:43;;;;;;;9.23;4.40;;;13.70;99.90;;;;;;5074515;28;20736;-63
2022/06/10 05:42:10;;;;;;;9.90;4.83;;;13.80;99.90;;;;;;5074613;28;20607;-64
2022/06/10 05:44:39;;;;;;;9.40;4.60;;;14.00;99.90;;;;;;5075043;28;20570;-64
2022/06/10 05:47:07;;;;;;;9.20;4.70;;;14.20;99.90;;;;;;5074301;28;20204;-64
2022/06/10 05:49:36;;;;;;;7.93;4.13;;;14.50;99.90;;;;;;5074679;28;20212;-63
2022/06/10 05:52:06;;;;;;;9.20;4.10;;;14.70;99.90;;;;;;5074510;28;20217;-64
2022/06/10 05:54:33;;;;;;;10.83;3.83;;;14.90;99.90;;;;;;5074654;28;20233;-64
2022/06/10 05:57:00;;;;;;;6.33;3.07;;;15.10;99.90;;;;;;5075347;28;20209;-65
2022/06/10 05:59:29;;;;;;;8.40;3.00;;;15.30;99.90;;;;;;5075613;28;20641;-62
2022/06/10 06:01:56;;;;;;;7.73;3.10;;;15.40;99.90;;;;;;5069963;28;20250;-61
2022/06/10 06:04:23;;;;;;;4.43;2.70;;;15.50;99.90;;;;;;5071417;28;20260;-63
2022/06/10 06:06:49;;;;;;;6.63;3.33;;;15.50;99.90;;;;;;5074090;28;20208;-64
2022/06/10 06:09:18;;;;;;;7.87;2.90;;;15.50;99.90;;;;;;5073954;28;20314;-64
2022/06/10 06:11:46;;;;;;;9.83;3.20;;;15.50;99.90;;;;;;5074226;28;20236;-64
2022/06/10 06:14:13;;;;;;;8.23;3.40;;;15.40;99.90;;;;;;5073926;28;20264;-64
2022/06/10 06:16:41;;;;;;;8.67;3.40;;;15.20;99.90;;;;;;5073320;28;20299;-64
2022/06/10 06:19:07;;;;;;;8.40;3.27;;;15.20;99.90;;;;;;5074133;28;20299;-65
2022/06/10 06:21:34;;;;;;;7.43;3.17;;;15.20;99.90;;;;;;5073500;28;20201;-64
2022/06/10 06:24:01;;;;;;;6.90;3.17;;;15.10;99.90;;;;;;5073975;28;20318;-65
2022/06/10 06:26:30;;;;;;;16.10;3.50;;;15.10;99.90;;;;;;5073773;28;20201;-65
2022/06/10 06:28:56;;;;;;;8.53;3.43;;;15.00;99.90;;;;;;5073896;28;20259;-64
2022/06/10 06:31:23;;;;;;;10.10;3.23;;;15.00;99.90;;;;;;5073915;28;20229;-64
2022/06/10 06:33:50;;;;;;;11.10;3.30;;;15.00;99.90;;;;;;5073415;28;20208;-64
2022/06/10 06:36:21;;;;;;;7.33;3.07;;;15.10;99.90;;;;;;5073330;28;20213;-64
2022/06/10 06:38:48;;;;;;;7.87;3.27;;;15.10;99.90;;;;;;5073859;28;20235;-66
2022/06/10 06:41:15;;;;;;;8.27;3.10;;;15.20;99.90;;;;;;5073690;28;20220;-65
2022/06/10 06:43:43;;;;;;;8.73;3.50;;;15.20;99.90;;;;;;5073426;28;20209;-64
2022/06/10 06:46:12;;;;;;;5.97;3.00;;;15.20;99.90;;;;;;5073161;28;20577;-64
2022/06/10 06:48:38;;;;;;;5.10;2.67;;;15.20;99.90;;;;;;5073358;28;20205;-64
2022/06/10 06:51:06;;;;;;;8.20;3.20;;;15.30;99.90;;;;;;5073258;28;20282;-63
2022/06/10 06:53:33;;;;;;;6.87;2.97;;;15.50;99.90;;;;;;5073544;28;20216;-64
2022/06/10 06:56:01;;;;;;;14.20;3.00;;;15.50;99.90;;;;;;5073023;28;20225;-64
2022/06/10 06:58:28;;;;;;;10.40;2.43;;;15.60;99.90;;;;;;5073000;28;20201;-64
2022/06/10 07:00:57;;;;;;;5.03;2.50;;;15.60;99.90;;;;;;5073387;28;20678;-64
2022/06/10 07:03:24;;;;;;;8.87;2.80;;;15.60;99.90;;;;;;5072400;28;20296;-63
2022/06/10 07:05:51;;;;;;;6.60;2.20;;;15.60;99.90;;;;;;5072979;28;20714;-66
2022/06/10 07:08:18;;;;;;;10.40;2.87;;;15.70;99.90;;;;;;5073208;28;20205;-65
2022/06/10 07:10:45;;;;;;;8.20;2.23;;;15.80;99.90;;;;;;5072667;28;20311;-66
2022/06/10 07:13:13;;;;;;;5.20;2.50;;;15.90;99.90;;;;;;5073156;28;20212;-65
2022/06/10 07:15:42;;;;;;;9.37;2.47;;;15.90;99.90;;;;;;5072237;28;20320;-66
2022/06/10 07:18:11;;;;;;;4.73;2.43;;;16.00;99.90;;;;;;5072868;28;20208;-65
2022/06/10 07:20:38;;;;;;;7.57;2.33;;;16.10;99.90;;;;;;5072883;28;20690;-65
2022/06/10 07:23:06;;;;;;;5.97;2.40;;;16.10;99.90;;;;;;5073905;28;20227;-67
2022/06/10 07:25:34;;;;;;;7.77;2.07;;;16.20;99.90;;;;;;5075126;28;20256;-66
2022/06/10 07:28:01;;;;;;;6.97;2.57;;;16.30;99.90;;;;;;5077464;28;20209;-68
2022/06/10 07:30:30;;;;;;;6.00;2.07;;;16.40;99.90;;;;;;5073761;28;20225;-67
2022/06/10 07:32:57;;;;;;;8.43;2.23;;;16.50;99.90;;;;;;5072260;28;20254;-67
2022/06/10 07:35:26;;;;;;;7.80;2.10;;;16.50;99.90;;;;;;5072149;28;20778;-65
2022/06/10 07:37:54;;;;;;;7.80;1.90;;;16.60;99.90;;;;;;5072059;28;20266;-63
2022/06/10 07:43:13;;;;;;;6.70;2.07;;;16.60;97.60;;;;;;5072141;28;20203;-65
2022/06/10 07:45:39;;;;;;;7.93;1.90;;;16.70;80.80;;;;;;5071925;28;20645;-65
2022/06/10 07:48:07;;;;;;;4.80;1.87;;;16.70;93.10;;;;;;5072120;28;20250;-65
2022/06/10 07:50:35;;;;;;;9.17;2.00;;;16.80;99.90;;;;;;5071883;28;20224;-67
2022/06/10 07:53:02;;;;;;;7.27;2.13;;;16.80;79.70;;;;;;5071590;28;20341;-67
2022/06/10 07:55:29;;;;;;;5.17;1.80;;;16.90;99.90;;;;;;5071734;28;20225;-64
2022/06/10 07:57:55;;;;;;;8.93;2.23;;;17.10;99.80;;;;;;5071783;28;20255;-65
2022/06/10 08:00:23;;;;;;;5.60;2.23;;;17.20;92.70;;;;;;5071751;28;20258;-65
2022/06/10 08:02:49;;;;;;;7.10;1.60;;;17.20;67.70;;;;;;5071526;28;20201;-65
2022/06/10 08:05:17;;;;;;;6.93;1.80;;;17.30;75.30;;;;;;5071495;28;20315;-64
2022/06/10 08:07:46;;;;;;;5.77;1.73;;;17.30;90.80;;;;;;5071014;28;20205;-64
2022/06/10 08:10:18;;;;;;;3.47;1.47;;;17.40;65.80;;;;;;5071304;28;20274;-64
2022/06/10 08:12:45;;;;;;;5.97;1.57;;;17.40;64.30;;;;;;5071606;28;20780;-63
2022/06/10 08:15:13;;;;;;;9.13;1.50;;;17.50;37.20;;;;;;5070990;28;20233;-63
2022/06/10 08:17:40;;;;;;;5.17;1.60;;;17.60;20.00;;;;;;5071243;28;20254;-64
2022/06/10 08:20:07;;;;;;;5.20;1.50;;;17.80;7.00;;;;;;5071357;28;20250;-64
2022/06/10 08:22:34;;;;;;;5.17;1.20;;;17.80;1.00;;;;;;5071536;28;20683;-64
2022/06/10 08:25:06;;;;;;;4.83;1.43;;;18.00;1.00;;;;;;5071351;28;20315;-64
2022/06/10 08:27:32;;;;;;;4.37;1.60;;;18.20;1.00;;;;;;5070754;28;20262;-65
2022/06/10 08:29:59;;;;;;;5.20;1.27;;;18.40;99.90;;;;;;5071676;28;20675;-64
2022/06/10 08:32:26;;;;;;;3.27;1.17;;;18.70;99.90;;;;;;5071086;28;20240;-65
2022/06/10 08:34:53;;;;;;;4.13;1.20;;;19.00;1.00;;;;;;5071094;28;20247;-65
2022/06/10 08:37:19;;;;;;;3.63;1.30;;;19.30;99.90;;;;;;5071297;28;20544;-64
2022/06/10 08:39:46;;;;;;;5.20;1.57;;;19.50;1.00;;;;;;5071155;28;20213;-65
2022/06/10 08:42:30;;;;;;;7.33;1.30;;;19.50;99.90;;;;;;5071410;28;20204;-65
2022/06/10 08:44:59;;;;;;;4.80;1.03;;;19.50;1.00;;;;;;5070115;28;20278;-63
2022/06/10 08:47:49;;;;;;;5.13;1.60;;;19.60;7.60;;;;;;5070956;28;20205;-64
2022/06/10 08:50:26;;;;;;;6.43;1.30;;;19.60;49.10;;;;;;5071200;28;20205;-65
2022/06/10 08:53:06;;;;;;;4.23;1.40;;;19.50;1.00;;;;;;5071439;28;20236;-64
2022/06/10 08:55:43;;;;;;;3.40;1.30;;;19.50;6.70;;;;;;5071139;28;20232;-62
2022/06/10 08:58:19;;;;;;;7.03;1.30;;;19.70;1.00;;;;;;5071542;28;20204;-63
2022/06/10 09:00:47;;;;;;;2.80;1.30;;;19.90;1.00;;;;;;5071720;28;20291;-61
2022/06/10 09:03:18;;;;;;;6.30;1.67;;;19.80;99.90;;;;;;5070875;28;20204;-61
2022/06/10 09:05:49;;;;;;;8.33;1.30;;;19.80;99.90;;;;;;5070840;28;20257;-63
2022/06/10 09:08:18;;;;;;;8.47;1.70;;;19.90;99.90;;;;;;5070096;28;20205;-63
2022/06/10 09:10:49;;;;;;;4.77;1.43;;;20.10;1.00;;;;;;5070962;28;20732;-62
2022/06/10 09:13:30;;;;;;;5.00;1.33;;;20.40;1.00;;;;;;5072103;28;20201;-62
2022/06/10 09:16:06;;;;;;;6.27;1.37;;;20.40;99.90;;;;;;5074508;28;20835;-62
2022/06/10 09:18:41;;;;;;;3.77;1.23;;;20.50;99.90;;;;;;5075230;28;20213;-62
2022/06/10 09:21:16;;;;;;;5.07;1.30;;;20.40;71.20;;;;;;5074814;28;20208;-62
2022/06/10 09:23:45;;;;;;;5.03;1.60;;;20.40;99.90;;;;;;5075064;28;20205;-65
2022/06/10 09:26:51;;;;;;;3.60;1.30;;;20.10;32.10;;;;;;5075257;28;20219;-65
2022/06/10 09:29:19;;;;;;;6.17;1.50;;;20.30;99.90;;;;;;5075563;28;20232;-65
2022/06/10 09:31:54;;;;;;;4.53;1.33;;;20.50;99.90;;;;;;5074291;28;20254;-65
2022/06/10 09:34:33;;;;;;;7.00;1.60;;;20.50;99.90;;;;;;5074454;28;20308;-66
2022/06/10 09:37:05;;;;;;;5.17;1.90;;;20.60;99.90;;;;;;5074357;28;20254;-64
2022/06/10 09:42:49;;;;;;;6.33;1.50;;;20.50;1.00;;;;;;5052142;28;20286;-66
2022/06/10 09:45:23;;;;;;;5.60;1.70;;;20.40;10.40;;;;;;5071279;28;20282;-63
2022/06/10 09:48:03;;;;;;;7.53;1.93;;;20.30;99.90;;;;;;5074109;28;20213;-65
2022/06/10 09:50:34;;;;;;;3.33;1.00;;;20.30;35.20;;;;;;5074149;28;20296;-64
2022/06/10 09:53:29;;;;;;;3.17;1.40;;;20.30;91.00;;;;;;5074844;28;20236;-63
2022/06/10 09:56:19;;;;;;;5.67;1.50;;;20.30;87.70;;;;;;5073974;28;20225;-63
2022/06/10 09:59:03;;;;;;;3.43;1.87;;;20.20;46.90;;;;;;5074717;28;20254;-64
2022/06/10 10:01:39;;;;;;;5.33;1.37;;;20.20;26.40;;;;;;5074133;28;20207;-65
2022/06/10 10:04:35;;;;;;;4.20;1.40;;;20.30;99.90;;;;;;5073978;28;20250;-64
2022/06/10 10:07:10;;;;;;;5.83;1.70;;;20.40;47.80;;;;;;5071593;28;20219;-64
2022/06/10 10:09:53;;;;;;;5.93;1.33;;;20.60;99.90;;;;;;5074412;28;20204;-63
2022/06/10 10:12:29;;;;;;;6.37;1.40;;;20.80;99.90;;;;;;5074045;28;20263;-62
2022/06/10 10:15:03;;;;;;;4.90;1.27;;;21.00;99.90;;;;;;5073542;28;20282;-63
2022/06/10 10:17:56;;;;;;;3.50;1.60;;;20.90;30.30;;;;;;5073885;28;20243;-63
2022/06/10 10:20:29;;;;;;;6.20;1.60;;;21.00;1.00;;;;;;5073688;28;20724;-62
2022/06/10 10:23:09;;;;;;;4.13;1.17;;;20.90;10.70;;;;;;5074028;28;20205;-63
2022/06/10 10:25:38;;;;;;;3.60;1.33;;;20.90;11.20;;;;;;5073006;28;20239;-63
2022/06/10 10:28:14;;;;;;;3.17;1.13;;;20.80;40.40;;;;;;5073773;28;20627;-62
2022/06/10 10:30:45;;;;;;;3.47;1.50;;;20.60;11.00;;;;;;5073673;28;20197;-62
2022/06/10 10:33:15;;;;;;;4.97;2.17;;;20.20;74.00;;;;;;5073774;28;20229;-63
2022/06/10 10:35:44;;;;;;;9.37;2.10;;;19.90;99.90;;;;;;5073207;28;20274;-62
2022/06/10 10:38:14;;;;;;;4.47;1.70;;;19.80;99.90;;;;;;5073276;28;20255;-63
2022/06/10 10:40:43;;;;;;;7.10;2.03;;;19.30;99.90;;;;;;5073810;28;20207;-62
2022/06/10 10:43:14;;;;;;;9.20;1.80;;;19.40;99.90;;;;;;5073071;28;20254;-63
2022/06/10 10:45:54;;;;;;;4.53;2.00;;;19.60;99.90;;;;;;5073446;28;20230;-62
2022/06/10 10:48:26;;;;;;;4.93;1.90;;;19.60;99.90;;;;;;5072877;28;20295;-62
2022/06/10 10:50:57;;;;;;;4.33;2.07;;;19.70;99.90;;;;;;5073428;28;20239;-61
2022/06/10 10:53:28;;;;;;;4.10;2.07;;;19.90;99.90;;;;;;5073396;28;20290;-62
2022/06/10 10:55:57;;;;;;;7.60;2.27;;;20.20;99.90;;;;;;5072557;28;20225;-61
2022/06/10 10:58:29;;;;;;;3.57;2.20;;;20.40;99.90;;;;;;5073272;28;20220;-62
2022/06/10 11:00:58;;;;;;;4.37;2.90;;;20.70;99.90;;;;;;5073091;28;20217;-61
2022/06/10 11:03:29;;;;;;;7.40;2.80;;;20.90;22.20;;;;;;5073203;28;20205;-61
2022/06/10 11:05:58;;;;;;;5.60;2.60;;;20.90;7.80;;;;;;5072544;28;20654;-62
2022/06/10 11:08:28;;;;;;;5.77;2.90;;;20.90;10.80;;;;;;5072945;28;20220;-62
2022/06/10 11:11:18;;;;;;;3.23;1.80;;;21.20;99.90;;;;;;5073097;28;20640;-61
2022/06/10 11:13:48;;;;;;;6.60;2.20;;;21.50;1.00;;;;;;5072534;28;20284;-62
2022/06/10 11:16:39;;;;;;;4.93;2.20;;;21.70;1.00;;;;;;5072420;28;20217;-62
2022/06/10 11:19:25;;;;;;;4.67;2.47;;;21.80;1.00;;;;;;5072412;28;20657;-60
2022/06/10 11:22:11;;;;;;;5.03;2.27;;;21.80;1.00;;;;;;5073016;28;20213;-61
2022/06/10 11:24:40;;;;;;;5.63;2.20;;;21.50;1.00;;;;;;5070355;28;20232;-63
2022/06/10 11:27:32;;;;;;;3.83;2.20;;;21.40;1.00;;;;;;5072361;28;20201;-61
2022/06/10 11:30:02;;;;;;;5.90;2.33;;;21.20;1.00;;;;;;5072210;28;20228;-61
2022/06/10 11:32:33;;;;;;;7.43;2.30;;;21.10;1.00;;;;;;5072609;28;20224;-61
2022/06/10 11:35:04;;;;;;;4.93;2.00;;;21.50;1.00;;;;;;5072114;28;20707;-61
2022/06/10 11:37:36;;;;;;;3.97;2.20;;;21.60;1.00;;;;;;5071412;28;20204;-63
2022/06/10 11:40:11;;;;;;;2.70;2.00;;;21.40;1.00;;;;;;5072632;28;20332;-62
2022/06/10 11:42:45;;;;;;;3.33;1.83;;;21.20;1.00;;;;;;5072091;28;20208;-62
2022/06/10 11:45:19;;;;;;;4.27;1.97;;;21.20;1.00;;;;;;5072240;28;20271;-62
2022/06/10 11:47:53;;;;;;;5.73;1.70;;;21.10;1.00;;;;;;5071755;28;20209;-62
2022/06/10 11:50:28;;;;;;;6.20;1.50;;;21.40;1.00;;;;;;5069457;28;20205;-63
2022/06/10 11:53:02;;;;;;;2.80;1.33;;;21.70;1.00;;;;;;5072884;28;20273;-63
2022/06/10 11:55:32;;;;;;;5.10;1.47;;;21.40;1.00;;;;;;5072222;28;20795;-62
2022/06/10 12:00:51;;;;;;;4.17;1.57;;;21.60;1.00;;;;;;5071417;28;20200;-61
2022/06/10 12:03:22;;;;;;;4.83;1.40;;;21.80;1.00;;;;;;5072484;28;20201;-62
2022/06/10 12:05:59;;;;;;;4.67;1.77;;;22.00;1.00;;;;;;5071334;28;20225;-63
2022/06/10 12:08:39;;;;;;;5.90;1.40;;;22.10;1.00;;;;;;5072006;28;20631;-62
2022/06/10 12:11:19;;;;;;;4.47;1.40;;;22.20;1.00;;;;;;5071482;28;20745;-62
2022/06/10 12:13:56;;;;;;;5.77;1.53;;;22.20;1.00;;;;;;5071191;28;20225;-64
2022/06/10 12:16:23;;;;;;;3.03;1.27;;;22.20;1.00;;;;;;5071188;28;20216;-65
2022/06/10 12:18:51;;;;;;;6.53;1.57;;;22.30;1.00;;;;;;5071347;28;20208;-64
2022/06/10 12:21:23;;;;;;;5.37;1.10;;;22.40;1.00;;;;;;5071837;28;20205;-64
2022/06/10 12:23:50;;;;;;;4.23;1.20;;;22.40;1.00;;;;;;5071095;28;20628;-65
2022/06/10 12:26:30;;;;;;;3.93;1.30;;;22.20;1.00;;;;;;5070922;28;20205;-64
2022/06/10 12:29:02;;;;;;;3.27;1.20;;;22.10;1.00;;;;;;5071421;28;20208;-64
2022/06/10 12:31:43;;;;;;;4.37;1.20;;;22.10;1.00;;;;;;5071569;28;20205;-64
2022/06/10 12:34:19;;;;;;;4.73;1.10;;;22.00;1.00;;;;;;5071149;28;20243;-63
2022/06/10 12:36:51;;;;;;;3.73;1.20;;;21.80;1.00;;;;;;5070650;28;20208;-64
2022/06/10 12:39:24;;;;;;;5.07;1.33;;;22.00;1.00;;;;;;5071402;28;20209;-66
2022/06/10 12:41:55;;;;;;;3.60;1.20;;;22.10;1.00;;;;;;5071221;28;20262;-67
2022/06/10 12:44:28;;;;;;;4.40;1.20;;;22.20;1.00;;;;;;5071167;28;21122;-65
2022/06/10 12:46:59;;;;;;;2.50;1.00;;;22.00;1.00;;;;;;5070224;28;20209;-63
2022/06/10 12:49:33;;;;;;;6.20;1.30;;;22.10;1.00;;;;;;5071694;28;20208;-68
2022/06/10 12:52:21;;;;;;;7.07;1.40;;;22.00;1.00;;;;;;5072324;28;20212;-68
2022/06/10 12:54:57;;;;;;;4.73;1.13;;;22.10;1.00;;;;;;5071766;28;20711;-68
2022/06/10 12:57:38;;;;;;;2.97;1.30;;;22.20;1.00;;;;;;5071251;28;20246;-65
2022/06/10 13:00:42;;;;;;;4.73;1.33;;;22.40;1.00;;;;;;5070873;28;20658;-65
2022/06/10 13:03:31;;;;;;;2.90;1.03;;;22.60;1.00;;;;;;5071021;28;20204;-65
2022/06/10 13:05:57;;;;;;;4.50;1.40;;;22.70;1.00;;;;;;5069882;28;20235;-65
2022/06/10 13:08:48;;;;;;;6.07;1.50;;;22.80;1.00;;;;;;5071034;28;20683;-64
2022/06/10 13:11:31;;;;;;;3.90;1.57;;;22.90;1.00;;;;;;5070854;28;20320;-63
2022/06/10 13:14:22;;;;;;;7.47;1.60;;;23.00;1.00;;;;;;5070568;28;20641;-64
2022/06/10 13:17:20;;;;;;;5.80;1.40;;;23.10;1.00;;;;;;5070401;28;20311;-63
2022/06/10 13:20:07;;;;;;;4.07;1.10;;;23.20;1.00;;;;;;5071137;28;20269;-62
2022/06/10 13:22:36;;;;;;;3.53;1.30;;;22.70;1.00;;;;;;5071011;28;20201;-62
2022/06/10 13:25:24;;;;;;;4.07;1.73;;;22.70;1.00;;;;;;5070887;28;20235;-63